sensor_id;sensor_type;location;lat;lon;timestamp;pressure;altitude;pressure_sealevel;temperature;humidity
12763;BME280;6445;52.490;13.378;2023-12-28T00:00:35;117375.28;;;-146.10;100.00
12763;BME280;6445;52.490;13.378;2023-12-28T00:03:00;117375.28;;;-146.10;100.00
12763;BME280;6445;52.490;13.378;2023-12-28T00:05:25;117115.03;;;-146.10;100.00
12763;BME280;6445;52.490;13.378;2023-12-28T00:07:50;117115.03;;;-146.10;100.00
12763;BME280;6445;52.490;13.378;2023-12-28T00:10:23;117115.03;;;-146.10;100.00
12763;BME280;6445;52.490;13.378;2023-12-28T00:12:49;116854.78;;;-146.10;100.00
12763;BME280;6445;52.490;13.378;2023-12-28T00:15:14;116594.56;;;-146.10;100.00
12763;BME280;6445;52.490;13.378;2023-12-28T00:17:39;116594.56;;;-146.10;100.00
12763;BME280;6445;52.490;13.378;2023-12-28T00:20:05;116594.56;;;-146.10;100.00
12763;BME280;6445;52.490;13.378;2023-12-28T00:22:30;116334.38;;;-146.10;100.00
12763;BME280;6445;52.490;13.378;2023-12-28T00:24:56;116074.19;;;-146.10;100.00
12763;BME280;6445;52.490;13.378;2023-12-28T00:27:21;115814.03;;;-146.10;100.00
12763;BME280;6445;52.490;13.378;2023-12-28T00:29:46;115553.88;;;-146.10;100.00
12763;BME280;6445;52.490;13.378;2023-12-28T00:32:11;115553.88;;;-146.10;100.00
12763;BME280;6445;52.490;13.378;2023-12-28T00:34:37;115553.88;;;-146.10;100.00
12763;BME280;6445;52.490;13.378;2023-12-28T00:37:02;115553.88;;;-146.10;100.00
12763;BME280;6445;52.490;13.378;2023-12-28T00:39:27;115553.88;;;-146.10;100.00
12763;BME280;6445;52.490;13.378;2023-12-28T00:41:53;115814.03;;;-146.10;100.00
12763;BME280;6445;52.490;13.378;2023-12-28T00:44:18;115553.88;;;-146.10;100.00
12763;BME280;6445;52.490;13.378;2023-12-28T00:46:43;115553.88;;;-146.10;100.00
12763;BME280;6445;52.490;13.378;2023-12-28T00:49:08;115553.88;;;-146.10;100.00
12763;BME280;6445;52.490;13.378;2023-12-28T00:51:34;115814.03;;;-146.10;100.00
12763;BME280;6445;52.490;13.378;2023-12-28T00:53:59;115814.03;;;-146.10;100.00
12763;BME280;6445;52.490;13.378;2023-12-28T00:56:24;115553.88;;;-146.10;100.00
12763;BME280;6445;52.490;13.378;2023-12-28T00:58:50;115293.72;;;-146.10;100.00
12763;BME280;6445;52.490;13.378;2023-12-28T01:01:15;115033.63;;;-146.10;100.00
12763;BME280;6445;52.490;13.378;2023-12-28T01:03:40;114253.34;;;-146.10;100.00
12763;BME280;6445;52.490;13.378;2023-12-28T01:06:06;114253.34;;;-146.10;100.00
12763;BME280;6445;52.490;13.378;2023-12-28T01:08:31;114773.50;;;-146.10;100.00
12763;BME280;6445;52.490;13.378;2023-12-28T01:10:59;114513.44;;;-146.10;100.00
12763;BME280;6445;52.490;13.378;2023-12-28T01:13:24;113993.31;;;-146.10;100.00
12763;BME280;6445;52.490;13.378;2023-12-28T01:15:49;114253.34;;;-146.10;100.00
12763;BME280;6445;52.490;13.378;2023-12-28T01:18:14;114253.34;;;-146.10;100.00
12763;BME280;6445;52.490;13.378;2023-12-28T01:20:40;113993.31;;;-146.10;100.00
12763;BME280;6445;52.490;13.378;2023-12-28T01:23:05;112953.25;;;-146.10;100.00
12763;BME280;6445;52.490;13.378;2023-12-28T01:25:30;113473.25;;;-146.10;100.00
12763;BME280;6445;52.490;13.378;2023-12-28T01:27:55;113733.28;;;-146.10;100.00
12763;BME280;6445;52.490;13.378;2023-12-28T01:30:21;113213.25;;;-146.10;100.00
12763;BME280;6445;52.490;13.378;2023-12-28T01:32:46;112433.34;;;-146.10;100.00
12763;BME280;6445;52.490;13.378;2023-12-28T01:35:11;111913.50;;;-146.10;100.00
12763;BME280;6445;52.490;13.378;2023-12-28T01:37:36;110873.97;;;-146.10;100.00
12763;BME280;6445;52.490;13.378;2023-12-28T01:40:02;109834.72;;;-146.10;100.00
12763;BME280;6445;52.490;13.378;2023-12-28T01:42:27;110354.31;;;-146.10;100.00
12763;BME280;6445;52.490;13.378;2023-12-28T01:44:55;109574.94;;;-146.10;100.00
12763;BME280;6445;52.490;13.378;2023-12-28T01:47:20;108536.03;;;-146.10;100.00
12763;BME280;6445;52.490;13.378;2023-12-28T01:49:46;108016.69;;;-146.10;100.00
12763;BME280;6445;52.490;13.378;2023-12-28T01:52:11;107757.03;;;-146.10;100.00
12763;BME280;6445;52.490;13.378;2023-12-28T01:54:37;107497.38;;;-146.10;100.00
12763;BME280;6445;52.490;13.378;2023-12-28T01:57:04;105939.91;;;-146.10;100.00
12763;BME280;6445;52.490;13.378;2023-12-28T01:59:30;106459.00;;;-146.10;100.00
12763;BME280;6445;52.490;13.378;2023-12-28T02:01:56;105161.41;;;-146.10;100.00
12763;BME280;6445;52.490;13.378;2023-12-28T02:04:21;104123.59;;;-146.10;100.00
12763;BME280;6445;52.490;13.378;2023-12-28T02:06:57;102826.75;;;-146.10;100.00
12763;BME280;6445;52.490;13.378;2023-12-28T02:09:24;102567.41;;;-146.10;100.00
12763;BME280;6445;52.490;13.378;2023-12-28T02:11:50;102048.81;;;-146.10;100.00
12763;BME280;6445;52.490;13.378;2023-12-28T02:14:15;101011.81;;;-146.10;100.00
12763;BME280;6445;52.490;13.378;2023-12-28T02:16:47;99715.97;;;-146.10;100.00
12763;BME280;6445;52.490;13.378;2023-12-28T02:19:43;98161.47;;;-146.10;100.00
12763;BME280;6445;52.490;13.378;2023-12-28T02:22:10;96607.56;;;-146.10;100.00
12763;BME280;6445;52.490;13.378;2023-12-28T02:25:03;96089.72;;;-146.10;100.00
12763;BME280;6445;52.490;13.378;2023-12-28T02:27:29;93242.81;;;-146.10;100.00
12763;BME280;6445;52.490;13.378;2023-12-28T02:29:55;91432.19;;;-146.10;100.00
12763;BME280;6445;52.490;13.378;2023-12-28T02:32:26;90397.91;;;-146.10;100.00
12763;BME280;6445;52.490;13.378;2023-12-28T02:34:56;88847.00;;;-146.10;100.00
12763;BME280;6445;52.490;13.378;2023-12-28T02:37:25;82649.28;;;-146.10;99.49
12763;BME280;6445;52.490;13.378;2023-12-28T02:39:51;81359.31;;;-146.10;98.75
12763;BME280;6445;52.490;13.378;2023-12-28T02:42:17;76976.44;;;-146.10;96.20
12763;BME280;6445;52.490;13.378;2023-12-28T02:44:42;73628.09;;;-146.10;94.54
12763;BME280;6445;52.490;13.378;2023-12-28T02:47:08;71822.25;;;-146.10;93.88
12763;BME280;6445;52.490;13.378;2023-12-28T02:49:33;67564.28;;;-146.10;92.01
12763;BME280;6445;52.490;13.378;2023-12-28T02:51:58;65564.47;;;-146.10;91.12
12763;BME280;6445;52.490;13.378;2023-12-28T02:54:23;62550.59;;;-146.10;89.55
12763;BME280;6445;52.490;13.378;2023-12-28T02:56:49;59711.38;;;-146.10;87.80
12763;BME280;6445;52.490;13.378;2023-12-28T02:59:14;57881.78;;;-146.10;85.86
12763;BME280;6445;52.490;13.378;2023-12-28T03:01:40;56762.00;;;-146.10;84.66
12763;BME280;6445;52.490;13.378;2023-12-28T03:04:05;56195.22;;;-146.10;84.04
12763;BME280;6445;52.490;13.378;2023-12-28T03:06:30;55306.16;;;-146.10;82.67
12763;BME280;6445;52.490;13.378;2023-12-28T03:08:55;54799.66;;;-146.10;81.74
12763;BME280;6445;52.490;13.378;2023-12-28T03:11:21;53950.94;;;-146.10;79.43
12763;BME280;6445;52.490;13.378;2023-12-28T03:13:46;53722.78;;;-146.10;79.17
12763;BME280;6445;52.490;13.378;2023-12-28T03:16:13;53336.53;;;-146.10;77.69
12763;BME280;6445;52.490;13.378;2023-12-28T03:18:38;53326.53;;;-146.10;77.45
12763;BME280;6445;52.490;13.378;2023-12-28T03:21:04;53190.44;;;-146.10;76.84
12763;BME280;6445;52.490;13.378;2023-12-28T03:23:29;53090.38;;;-146.10;76.44
12763;BME280;6445;52.490;13.378;2023-12-28T03:25:54;52990.34;;;-146.10;76.17
12763;BME280;6445;52.490;13.378;2023-12-28T03:28:19;52886.28;;;-146.10;75.53
12763;BME280;6445;52.490;13.378;2023-12-28T03:30:45;52814.25;;;-146.10;75.08
12763;BME280;6445;52.490;13.378;2023-12-28T03:33:10;52824.25;;;-146.10;75.43
12763;BME280;6445;52.490;13.378;2023-12-28T03:35:36;52686.19;;;-146.10;74.46
12763;BME280;6445;52.490;13.378;2023-12-28T03:38:01;52652.19;;;-146.10;74.29
12763;BME280;6445;52.490;13.378;2023-12-28T03:40:26;52622.16;;;-146.10;73.99
12763;BME280;6445;52.490;13.378;2023-12-28T03:42:51;52648.19;;;-146.10;73.90
12763;BME280;6445;52.490;13.378;2023-12-28T03:45:17;52860.28;;;-146.10;75.24
12763;BME280;6445;52.490;13.378;2023-12-28T03:47:42;53868.88;;;-146.10;79.24
12763;BME280;6445;52.490;13.378;2023-12-28T03:50:07;55420.28;;;-146.10;82.85
12763;BME280;6445;52.490;13.378;2023-12-28T03:52:33;58440.78;;;-146.10;86.88
12763;BME280;6445;52.490;13.378;2023-12-28T03:54:58;64318.13;;;-146.10;91.14
12763;BME280;6445;52.490;13.378;2023-12-28T03:57:25;68397.84;;;-146.10;92.98
12763;BME280;6445;52.490;13.378;2023-12-28T03:59:50;74400.53;;;-146.10;94.40
12763;BME280;6445;52.490;13.378;2023-12-28T04:02:16;77491.84;;;-146.10;96.25
12763;BME280;6445;52.490;13.378;2023-12-28T04:04:41;73370.63;;;-146.10;94.24
12763;BME280;6445;52.490;13.378;2023-12-28T04:07:06;74400.53;;;-146.10;94.86
12763;BME280;6445;52.490;13.378;2023-12-28T04:09:33;69997.16;;;-146.10;92.52
12763;BME280;6445;52.490;13.378;2023-12-28T04:11:58;67522.13;;;-146.10;91.54
12763;BME280;6445;52.490;13.378;2023-12-28T04:14:23;65684.94;;;-146.10;90.79
12763;BME280;6445;52.490;13.378;2023-12-28T04:16:49;66070.38;;;-146.10;90.91
12763;BME280;6445;52.490;13.378;2023-12-28T04:19:14;65891.69;;;-146.10;91.06
12763;BME280;6445;52.490;13.378;2023-12-28T04:21:43;61704.22;;;-146.10;88.42
12763;BME280;6445;52.490;13.378;2023-12-28T04:24:08;60433.00;;;-146.10;87.57
12763;BME280;6445;52.490;13.378;2023-12-28T04:26:34;58340.59;;;-146.10;85.34
12763;BME280;6445;52.490;13.378;2023-12-28T04:28:59;58703.28;;;-146.10;85.96
12763;BME280;6445;52.490;13.378;2023-12-28T04:31:24;57713.50;;;-146.10;84.91
12763;BME280;6445;52.490;13.378;2023-12-28T04:33:49;56677.88;;;-146.10;83.38
12763;BME280;6445;52.490;13.378;2023-12-28T04:36:15;56097.09;;;-146.10;82.77
12763;BME280;6445;52.490;13.378;2023-12-28T04:38:40;55948.91;;;-146.10;82.78
12763;BME280;6445;52.490;13.378;2023-12-28T04:41:06;55824.75;;;-146.10;82.36
12763;BME280;6445;52.490;13.378;2023-12-28T04:43:31;55286.16;;;-146.10;81.72
12763;BME280;6445;52.490;13.378;2023-12-28T04:45:56;54637.50;;;-146.10;80.42
12763;BME280;6445;52.490;13.378;2023-12-28T04:48:22;54399.28;;;-146.10;80.08
12763;BME280;6445;52.490;13.378;2023-12-28T04:50:49;54439.31;;;-146.10;79.94
12763;BME280;6445;52.490;13.378;2023-12-28T04:53:14;54527.41;;;-146.10;79.90
12763;BME280;6445;52.490;13.378;2023-12-28T04:55:40;54567.44;;;-146.10;80.07
12763;BME280;6445;52.490;13.378;2023-12-28T04:58:05;54275.19;;;-146.10;79.69
12763;BME280;6445;52.490;13.378;2023-12-28T05:00:30;54465.34;;;-146.10;79.73
12763;BME280;6445;52.490;13.378;2023-12-28T05:02:55;54277.19;;;-146.10;79.26
12763;BME280;6445;52.490;13.378;2023-12-28T05:05:21;54169.09;;;-146.10;79.18
12763;BME280;6445;52.490;13.378;2023-12-28T05:07:46;54301.19;;;-146.10;79.37
12763;BME280;6445;52.490;13.378;2023-12-28T05:10:11;54255.16;;;-146.10;79.39
12763;BME280;6445;52.490;13.378;2023-12-28T05:12:36;54475.34;;;-146.10;79.92
12763;BME280;6445;52.490;13.378;2023-12-28T05:15:02;54709.56;;;-146.10;80.37
12763;BME280;6445;52.490;13.378;2023-12-28T05:17:27;54625.50;;;-146.10;80.25
12763;BME280;6445;52.490;13.378;2023-12-28T05:19:52;54409.28;;;-146.10;79.71
12763;BME280;6445;52.490;13.378;2023-12-28T05:22:18;54249.16;;;-146.10;79.33
12763;BME280;6445;52.490;13.378;2023-12-28T05:24:43;54287.19;;;-146.10;79.60
12763;BME280;6445;52.490;13.378;2023-12-28T05:27:08;54293.19;;;-146.10;79.16
12763;BME280;6445;52.490;13.378;2023-12-28T05:29:33;54363.25;;;-146.10;79.62
12763;BME280;6445;52.490;13.378;2023-12-28T05:31:58;54439.31;;;-146.10;79.71
12763;BME280;6445;52.490;13.378;2023-12-28T05:34:24;54465.34;;;-146.10;79.71
12763;BME280;6445;52.490;13.378;2023-12-28T05:36:49;54341.25;;;-146.10;79.38
12763;BME280;6445;52.490;13.378;2023-12-28T05:39:15;54643.50;;;-146.10;80.23
12763;BME280;6445;52.490;13.378;2023-12-28T05:41:40;54907.75;;;-146.10;80.33
12763;BME280;6445;52.490;13.378;2023-12-28T05:44:05;55007.84;;;-146.10;80.54
12763;BME280;6445;52.490;13.378;2023-12-28T05:46:31;55236.09;;;-146.10;81.11
12763;BME280;6445;52.490;13.378;2023-12-28T05:48:56;55686.59;;;-146.10;81.78
12763;BME280;6445;52.490;13.378;2023-12-28T05:51:21;56357.44;;;-146.10;82.70
12763;BME280;6445;52.490;13.378;2023-12-28T05:53:46;57012.38;;;-146.10;83.17
12763;BME280;6445;52.490;13.378;2023-12-28T05:56:12;57751.56;;;-146.10;84.12
12763;BME280;6445;52.490;13.378;2023-12-28T05:58:37;58332.59;;;-146.10;84.57
12763;BME280;6445;52.490;13.378;2023-12-28T06:01:04;59388.69;;;-146.10;85.65
12763;BME280;6445;52.490;13.378;2023-12-28T06:03:30;60823.97;;;-146.10;86.59
12763;BME280;6445;52.490;13.378;2023-12-28T06:05:55;61916.81;;;-146.10;87.36
12763;BME280;6445;52.490;13.378;2023-12-28T06:08:21;62378.09;;;-146.10;87.45
12763;BME280;6445;52.490;13.378;2023-12-28T06:10:46;63567.69;;;-146.10;87.97
12763;BME280;6445;52.490;13.378;2023-12-28T06:13:11;64550.91;;;-146.10;88.60
12763;BME280;6445;52.490;13.378;2023-12-28T06:15:36;65891.69;;;-146.10;89.28
12763;BME280;6445;52.490;13.378;2023-12-28T06:18:02;68988.47;;;-146.10;90.53
12763;BME280;6445;52.490;13.378;2023-12-28T06:20:29;70756.84;;;-146.10;91.24
12763;BME280;6445;52.490;13.378;2023-12-28T06:22:54;71054.31;;;-146.10;91.08
12763;BME280;6445;52.490;13.378;2023-12-28T06:25:19;72341.00;;;-146.10;91.67
12763;BME280;6445;52.490;13.378;2023-12-28T06:27:45;72341.00;;;-146.10;91.41
12763;BME280;6445;52.490;13.378;2023-12-28T06:30:10;73113.19;;;-146.10;92.04
12763;BME280;6445;52.490;13.378;2023-12-28T06:32:36;73113.19;;;-146.10;91.95
12763;BME280;6445;52.490;13.378;2023-12-28T06:35:01;74400.53;;;-146.10;92.56
12763;BME280;6445;52.490;13.378;2023-12-28T06:37:26;73628.09;;;-146.10;91.96
12763;BME280;6445;52.490;13.378;2023-12-28T06:39:51;75688.28;;;-146.10;93.14
12763;BME280;6445;52.490;13.378;2023-12-28T06:42:17;76718.78;;;-146.10;93.69
12763;BME280;6445;52.490;13.378;2023-12-28T06:44:42;78265.03;;;-146.10;94.38
12763;BME280;6445;52.490;13.378;2023-12-28T06:47:07;78265.03;;;-146.10;94.32
12763;BME280;6445;52.490;13.378;2023-12-28T06:49:32;79554.03;;;-146.10;95.06
12763;BME280;6445;52.490;13.378;2023-12-28T06:51:57;81359.31;;;-146.10;95.74
12763;BME280;6445;52.490;13.378;2023-12-28T06:54:23;81875.25;;;-146.10;96.21
12763;BME280;6445;52.490;13.378;2023-12-28T06:56:49;82907.34;;;-146.10;96.76
12763;BME280;6445;52.490;13.378;2023-12-28T06:59:16;82907.34;;;-146.10;96.42
12763;BME280;6445;52.490;13.378;2023-12-28T07:01:41;83939.69;;;-146.10;97.23
12763;BME280;6445;52.490;13.378;2023-12-28T07:04:07;84455.97;;;-146.10;97.48
12763;BME280;6445;52.490;13.378;2023-12-28T07:06:32;86005.19;;;-146.10;98.46
12763;BME280;6445;52.490;13.378;2023-12-28T07:08:57;86780.03;;;-146.10;98.96
12763;BME280;6445;52.490;13.378;2023-12-28T07:11:23;86005.19;;;-146.10;98.51
12763;BME280;6445;52.490;13.378;2023-12-28T07:13:48;86780.03;;;-146.10;98.78
12763;BME280;6445;52.490;13.378;2023-12-28T07:16:14;87813.38;;;-146.10;99.56
12763;BME280;6445;52.490;13.378;2023-12-28T07:18:39;87555.03;;;-146.10;99.06
12763;BME280;6445;52.490;13.378;2023-12-28T07:21:04;88588.56;;;-146.10;99.74
12763;BME280;6445;52.490;13.378;2023-12-28T07:23:31;89880.88;;;-146.10;100.00
12763;BME280;6445;52.490;13.378;2023-12-28T07:25:56;89880.88;;;-146.10;100.00
12763;BME280;6445;52.490;13.378;2023-12-28T07:28:21;90139.41;;;-146.10;100.00
12763;BME280;6445;52.490;13.378;2023-12-28T07:30:46;91173.59;;;-146.10;100.00
12763;BME280;6445;52.490;13.378;2023-12-28T07:33:12;90915.03;;;-146.10;100.00
12763;BME280;6445;52.490;13.378;2023-12-28T07:35:37;91173.59;;;-146.10;100.00
12763;BME280;6445;52.490;13.378;2023-12-28T07:38:02;90656.47;;;-146.10;100.00
12763;BME280;6445;52.490;13.378;2023-12-28T07:40:28;90915.03;;;-146.10;100.00
12763;BME280;6445;52.490;13.378;2023-12-28T07:42:53;91173.59;;;-146.10;100.00
12763;BME280;6445;52.490;13.378;2023-12-28T07:45:18;90915.03;;;-146.10;100.00
12763;BME280;6445;52.490;13.378;2023-12-28T07:47:48;91432.19;;;-146.10;100.00
12763;BME280;6445;52.490;13.378;2023-12-28T07:50:14;92208.09;;;-146.10;100.00
12763;BME280;6445;52.490;13.378;2023-12-28T07:52:41;92725.41;;;-146.10;100.00
12763;BME280;6445;52.490;13.378;2023-12-28T07:55:07;93242.81;;;-146.10;100.00
12763;BME280;6445;52.490;13.378;2023-12-28T07:57:32;93501.53;;;-146.10;100.00
12763;BME280;6445;52.490;13.378;2023-12-28T07:59:59;93760.28;;;-146.10;100.00
12763;BME280;6445;52.490;13.378;2023-12-28T08:02:24;93760.28;;;-146.10;100.00
12763;BME280;6445;52.490;13.378;2023-12-28T08:04:49;93760.28;;;-146.10;100.00
12763;BME280;6445;52.490;13.378;2023-12-28T08:07:14;93501.53;;;-146.10;100.00
12763;BME280;6445;52.490;13.378;2023-12-28T08:09:40;93501.53;;;-146.10;100.00
12763;BME280;6445;52.490;13.378;2023-12-28T08:12:05;94277.81;;;-146.10;100.00
12763;BME280;6445;52.490;13.378;2023-12-28T08:14:30;93242.81;;;-146.10;100.00
12763;BME280;6445;52.490;13.378;2023-12-28T08:16:56;93501.53;;;-146.10;100.00
12763;BME280;6445;52.490;13.378;2023-12-28T08:19:21;92984.13;;;-146.10;100.00
12763;BME280;6445;52.490;13.378;2023-12-28T08:21:46;91949.44;;;-146.10;100.00
12763;BME280;6445;52.490;13.378;2023-12-28T08:24:12;91949.44;;;-146.10;100.00
12763;BME280;6445;52.490;13.378;2023-12-28T08:26:37;90397.91;;;-146.10;100.00
12763;BME280;6445;52.490;13.378;2023-12-28T08:29:02;89363.91;;;-146.10;100.00
12763;BME280;6445;52.490;13.378;2023-12-28T08:31:28;87813.38;;;-146.10;99.19
12763;BME280;6445;52.490;13.378;2023-12-28T08:33:54;86780.03;;;-146.10;98.48
12763;BME280;6445;52.490;13.378;2023-12-28T08:36:19;87296.69;;;-146.10;98.89
12763;BME280;6445;52.490;13.378;2023-12-28T08:38:45;87038.34;;;-146.10;98.57
12763;BME280;6445;52.490;13.378;2023-12-28T08:41:20;85746.97;;;-146.10;97.89
12763;BME280;6445;52.490;13.378;2023-12-28T08:43:46;86780.03;;;-146.10;98.36
12763;BME280;6445;52.490;13.378;2023-12-28T08:46:12;86005.19;;;-146.10;97.78
12763;BME280;6445;52.490;13.378;2023-12-28T08:48:37;86521.75;;;-146.10;98.15
12763;BME280;6445;52.490;13.378;2023-12-28T08:51:03;86780.03;;;-146.10;98.55
12763;BME280;6445;52.490;13.378;2023-12-28T08:53:28;86780.03;;;-146.10;98.25
12763;BME280;6445;52.490;13.378;2023-12-28T08:55:53;86005.19;;;-146.10;97.85
12763;BME280;6445;52.490;13.378;2023-12-28T08:58:18;85488.72;;;-146.10;97.71
12763;BME280;6445;52.490;13.378;2023-12-28T09:00:43;85488.72;;;-146.10;97.52
12763;BME280;6445;52.490;13.378;2023-12-28T09:03:10;84972.31;;;-146.10;97.29
12763;BME280;6445;52.490;13.378;2023-12-28T09:05:35;83939.69;;;-146.10;96.55
12763;BME280;6445;52.490;13.378;2023-12-28T09:08:01;83939.69;;;-146.10;96.55
12763;BME280;6445;52.490;13.378;2023-12-28T09:10:26;82133.25;;;-146.10;95.64
12763;BME280;6445;52.490;13.378;2023-12-28T09:12:51;82649.28;;;-146.10;96.01
12763;BME280;6445;52.490;13.378;2023-12-28T09:15:16;83681.59;;;-146.10;96.29
12763;BME280;6445;52.490;13.378;2023-12-28T09:17:42;83939.69;;;-146.10;96.46
12763;BME280;6445;52.490;13.378;2023-12-28T09:20:08;84197.81;;;-146.10;96.58
12763;BME280;6445;52.490;13.378;2023-12-28T09:22:33;83681.59;;;-146.10;96.80
12763;BME280;6445;52.490;13.378;2023-12-28T09:24:58;82649.28;;;-146.10;95.71
12763;BME280;6445;52.490;13.378;2023-12-28T09:27:24;83165.41;;;-146.10;96.09
12763;BME280;6445;52.490;13.378;2023-12-28T09:29:49;83423.50;;;-146.10;96.43
12763;BME280;6445;52.490;13.378;2023-12-28T09:32:14;83165.41;;;-146.10;96.20
12763;BME280;6445;52.490;13.378;2023-12-28T09:34:41;82649.28;;;-146.10;95.88
12763;BME280;6445;52.490;13.378;2023-12-28T09:37:06;82391.25;;;-146.10;95.75
12763;BME280;6445;52.490;13.378;2023-12-28T09:39:32;83165.41;;;-146.10;96.11
12763;BME280;6445;52.490;13.378;2023-12-28T09:42:04;83165.41;;;-146.10;96.22
12763;BME280;6445;52.490;13.378;2023-12-28T09:44:32;82907.34;;;-146.10;95.87
12763;BME280;6445;52.490;13.378;2023-12-28T09:46:57;83165.41;;;-146.10;95.95
12763;BME280;6445;52.490;13.378;2023-12-28T09:49:23;83681.59;;;-146.10;96.42
12763;BME280;6445;52.490;13.378;2023-12-28T09:51:48;84455.97;;;-146.10;96.90
12763;BME280;6445;52.490;13.378;2023-12-28T09:54:14;84972.31;;;-146.10;97.04
12763;BME280;6445;52.490;13.378;2023-12-28T09:56:40;84714.13;;;-146.10;97.14
12763;BME280;6445;52.490;13.378;2023-12-28T09:59:06;83939.69;;;-146.10;96.30
12763;BME280;6445;52.490;13.378;2023-12-28T10:01:34;84714.13;;;-146.10;96.83
12763;BME280;6445;52.490;13.378;2023-12-28T10:03:59;83681.59;;;-146.10;96.05
12763;BME280;6445;52.490;13.378;2023-12-28T10:06:24;82649.28;;;-146.10;95.50
12763;BME280;6445;52.490;13.378;2023-12-28T10:08:49;82907.34;;;-146.10;95.40
12763;BME280;6445;52.490;13.378;2023-12-28T10:11:16;81875.25;;;-146.10;94.96
12763;BME280;6445;52.490;13.378;2023-12-28T10:13:42;80327.63;;;-146.10;94.14
12763;BME280;6445;52.490;13.378;2023-12-28T10:16:11;76461.13;;;-146.10;91.50
12763;BME280;6445;52.490;13.378;2023-12-28T10:18:36;69115.03;;;-146.10;88.52
12763;BME280;6445;52.490;13.378;2023-12-28T10:21:02;69946.91;;;-146.10;88.81
12763;BME280;6445;52.490;13.378;2023-12-28T10:23:27;66411.66;;;-146.10;87.36
12763;BME280;6445;52.490;13.378;2023-12-28T10:25:55;64689.38;;;-146.10;86.46
12763;BME280;6445;52.490;13.378;2023-12-28T10:28:21;65367.78;;;-146.10;86.66
12763;BME280;6445;52.490;13.378;2023-12-28T10:30:46;63254.72;;;-146.10;85.39
12763;BME280;6445;52.490;13.378;2023-12-28T10:33:13;61200.91;;;-146.10;83.93
12763;BME280;6445;52.490;13.378;2023-12-28T10:35:38;59835.66;;;-146.10;83.04
12763;BME280;6445;52.490;13.378;2023-12-28T10:38:04;58330.59;;;-146.10;81.57
12763;BME280;6445;52.490;13.378;2023-12-28T10:40:29;58362.66;;;-146.10;82.31
12763;BME280;6445;52.490;13.378;2023-12-28T10:43:03;58192.34;;;-146.10;81.41
12763;BME280;6445;52.490;13.378;2023-12-28T10:45:32;57146.59;;;-146.10;80.14
12763;BME280;6445;52.490;13.378;2023-12-28T10:48:08;54787.63;;;-146.10;76.73
12763;BME280;6445;52.490;13.378;2023-12-28T10:50:47;53372.53;;;-146.10;73.06
12763;BME280;6445;52.490;13.378;2023-12-28T10:53:30;54033.00;;;-146.10;75.51
12763;BME280;6445;52.490;13.378;2023-12-28T10:56:41;54969.81;;;-146.10;77.27
12763;BME280;6445;52.490;13.378;2023-12-28T10:59:26;55011.84;;;-146.10;77.35
12763;BME280;6445;52.490;13.378;2023-12-28T11:01:56;54893.75;;;-146.10;77.06
12763;BME280;6445;52.490;13.378;2023-12-28T11:04:37;54583.44;;;-146.10;76.56
12763;BME280;6445;52.490;13.378;2023-12-28T11:07:09;54355.25;;;-146.10;75.43
12763;BME280;6445;52.490;13.378;2023-12-28T11:09:35;53756.78;;;-146.10;74.23
12763;BME280;6445;52.490;13.378;2023-12-28T11:12:02;53548.66;;;-146.10;74.03
12763;BME280;6445;52.490;13.378;2023-12-28T11:14:30;52594.16;;;-146.10;69.36
12763;BME280;6445;52.490;13.378;2023-12-28T11:16:59;52740.22;;;-146.10;70.17
12763;BME280;6445;52.490;13.378;2023-12-28T11:19:26;53074.38;;;-146.10;72.69
12763;BME280;6445;52.490;13.378;2023-12-28T11:21:52;53946.94;;;-146.10;75.95
12763;BME280;6445;52.490;13.378;2023-12-28T11:24:18;54501.38;;;-146.10;76.75
12763;BME280;6445;52.490;13.378;2023-12-28T11:26:44;55296.16;;;-146.10;78.73
12763;BME280;6445;52.490;13.378;2023-12-28T11:29:18;55920.88;;;-146.10;79.59
12763;BME280;6445;52.490;13.378;2023-12-28T11:31:44;55065.91;;;-146.10;77.03
12763;BME280;6445;52.490;13.378;2023-12-28T11:34:15;53676.75;;;-146.10;74.03
12763;BME280;6445;52.490;13.378;2023-12-28T11:36:49;53252.47;;;-146.10;72.36
12763;BME280;6445;52.490;13.378;2023-12-28T11:39:23;52732.22;;;-146.10;70.25
12763;BME280;6445;52.490;13.378;2023-12-28T11:41:51;52898.28;;;-146.10;71.32
12763;BME280;6445;52.490;13.378;2023-12-28T11:44:26;52954.31;;;-146.10;71.62
12763;BME280;6445;52.490;13.378;2023-12-28T11:46:51;52934.31;;;-146.10;71.82
12763;BME280;6445;52.490;13.378;2023-12-28T11:49:25;53194.44;;;-146.10;73.12
12763;BME280;6445;52.490;13.378;2023-12-28T11:51:57;53038.34;;;-146.10;72.21
12763;BME280;6445;52.490;13.378;2023-12-28T11:54:26;52962.31;;;-146.10;71.86
12763;BME280;6445;52.490;13.378;2023-12-28T11:56:52;53174.44;;;-146.10;72.88
12763;BME280;6445;52.490;13.378;2023-12-28T11:59:18;53174.44;;;-146.10;72.83
12763;BME280;6445;52.490;13.378;2023-12-28T12:01:43;53314.50;;;-146.10;73.50
12763;BME280;6445;52.490;13.378;2023-12-28T12:04:09;53292.50;;;-146.10;73.49
12763;BME280;6445;52.490;13.378;2023-12-28T12:06:34;53208.44;;;-146.10;73.33
12763;BME280;6445;52.490;13.378;2023-12-28T12:08:59;53322.50;;;-146.10;73.74
12763;BME280;6445;52.490;13.378;2023-12-28T12:11:24;53254.47;;;-146.10;73.24
12763;BME280;6445;52.490;13.378;2023-12-28T12:13:51;53372.53;;;-146.10;73.56
12763;BME280;6445;52.490;13.378;2023-12-28T12:16:17;53414.56;;;-146.10;73.92
12763;BME280;6445;52.490;13.378;2023-12-28T12:18:42;53370.53;;;-146.10;73.74
12763;BME280;6445;52.490;13.378;2023-12-28T12:21:08;53274.50;;;-146.10;73.12
12763;BME280;6445;52.490;13.378;2023-12-28T12:23:33;53264.47;;;-146.10;72.99
12763;BME280;6445;52.490;13.378;2023-12-28T12:25:59;53084.38;;;-146.10;72.50
12763;BME280;6445;52.490;13.378;2023-12-28T12:28:24;52828.25;;;-146.10;70.57
12763;BME280;6445;52.490;13.378;2023-12-28T12:30:59;52704.19;;;-146.10;69.41